createdAt,value
2023-03-17T00:01:25.028Z,1.93
2023-03-17T00:03:53.069Z,2.17
2023-03-17T00:06:29.290Z,2.00
2023-03-17T00:08:57.536Z,2.23
2023-03-17T00:11:26.501Z,1.80
2023-03-17T00:13:54.478Z,2.20
2023-03-17T00:16:27.160Z,2.50
2023-03-17T00:18:56.763Z,2.33
2023-03-17T00:21:29.227Z,1.93
2023-03-17T00:23:57.854Z,1.90
2023-03-17T00:26:25.858Z,2.13
2023-03-17T00:28:54.454Z,1.90
2023-03-17T00:31:27.240Z,2.23
2023-03-17T00:33:55.824Z,2.00
2023-03-17T00:36:27.985Z,2.00
2023-03-17T00:38:57.568Z,1.90
2023-03-17T00:41:27.228Z,2.00
2023-03-17T00:43:55.454Z,2.40
2023-03-17T00:46:28.889Z,1.93
2023-03-17T00:48:58.438Z,2.20
2023-03-17T00:51:26.291Z,2.00
2023-03-17T00:53:55.982Z,2.20
2023-03-17T00:56:24.685Z,1.90
2023-03-17T00:58:52.789Z,2.47
2023-03-17T01:01:20.640Z,2.10
2023-03-17T01:03:49.873Z,2.40
2023-03-17T01:06:18.212Z,1.80
2023-03-17T01:08:46.620Z,2.23
2023-03-17T01:11:18.666Z,2.03
2023-03-17T01:13:48.844Z,2.00
2023-03-17T01:16:17.055Z,2.30
2023-03-17T01:18:45.659Z,1.80
2023-03-17T01:21:15.414Z,2.30
2023-03-17T01:23:43.777Z,1.90
2023-03-17T01:26:11.785Z,1.83
2023-03-17T01:28:39.671Z,2.10
2023-03-17T01:31:07.545Z,1.97
2023-03-17T01:33:35.361Z,2.00
2023-03-17T01:36:03.353Z,1.97
2023-03-17T01:38:33.437Z,1.97
2023-03-17T01:41:03.452Z,2.27
2023-03-17T01:43:31.948Z,2.00
2023-03-17T01:46:23.001Z,1.80
2023-03-17T01:49:00.857Z,1.90
2023-03-17T01:51:33.463Z,1.77
2023-03-17T01:54:06.722Z,2.00
2023-03-17T01:56:35.168Z,1.77
2023-03-17T01:59:06.597Z,2.07
2023-03-17T02:01:38.773Z,1.97
2023-03-17T02:04:07.648Z,2.00
2023-03-17T02:06:42.119Z,1.80
2023-03-17T02:09:17.304Z,2.03
2023-03-17T02:11:46.601Z,1.97
2023-03-17T02:14:14.621Z,1.90
2023-03-17T02:16:42.648Z,2.10
2023-03-17T02:19:10.536Z,1.80
2023-03-17T02:21:45.302Z,1.70
2023-03-17T02:24:22.810Z,1.83
2023-03-17T02:26:52.650Z,1.90
2023-03-17T02:29:22.024Z,1.77
2023-03-17T02:31:50.001Z,1.70
2023-03-17T02:34:17.925Z,1.83
2023-03-17T02:36:47.557Z,1.93
2023-03-17T02:39:19.748Z,1.60
2023-03-17T02:41:48.221Z,2.00
2023-03-17T02:44:16.356Z,2.00
2023-03-17T02:46:44.210Z,1.73
2023-03-17T02:49:12.798Z,1.87
2023-03-17T02:51:40.931Z,1.70
2023-03-17T02:54:10.352Z,2.40
2023-03-17T02:56:38.604Z,1.93
2023-03-17T02:59:07.253Z,1.70
2023-03-17T03:01:35.155Z,1.63
2023-03-17T03:04:03.978Z,1.90
2023-03-17T03:06:31.845Z,1.87
2023-03-17T03:09:00.059Z,2.20
2023-03-17T03:11:29.356Z,1.87
2023-03-17T03:13:57.338Z,2.10
2023-03-17T03:16:25.565Z,2.00
2023-03-17T03:18:53.431Z,2.00
2023-03-17T03:21:22.101Z,1.50
2023-03-17T03:23:50.055Z,1.80
2023-03-17T03:26:18.070Z,1.67
2023-03-17T03:28:47.252Z,1.83
2023-03-17T03:31:15.129Z,1.67
2023-03-17T03:33:43.519Z,2.00
2023-03-17T03:36:11.368Z,1.83
2023-03-17T03:38:39.142Z,2.07
2023-03-17T03:41:07.387Z,2.13
2023-03-17T03:43:35.390Z,1.83
2023-03-17T03:46:04.769Z,1.90
2023-03-17T03:48:32.905Z,1.70
2023-03-17T03:51:02.865Z,1.77
2023-03-17T03:53:31.190Z,1.90
2023-03-17T03:55:59.019Z,2.00
2023-03-17T03:58:27.110Z,2.23
2023-03-17T04:00:54.981Z,1.90
2023-03-17T04:03:24.300Z,1.97
2023-03-17T04:05:52.551Z,1.77
2023-03-17T04:08:20.289Z,2.00
2023-03-17T04:10:47.999Z,1.90
2023-03-17T04:13:15.863Z,2.30
2023-03-17T04:15:43.699Z,2.07
2023-03-17T04:18:11.661Z,1.97
2023-03-17T04:20:41.171Z,2.10
2023-03-17T04:23:08.939Z,2.07
2023-03-17T04:25:36.996Z,1.70
2023-03-17T04:28:05.307Z,2.10
2023-03-17T04:30:33.530Z,1.83
2023-03-17T04:33:01.463Z,1.70
2023-03-17T04:35:29.382Z,2.17
2023-03-17T04:37:58.568Z,2.30
2023-03-17T04:40:27.399Z,1.87
2023-03-17T04:42:55.179Z,1.90
2023-03-17T04:45:23.096Z,2.10
2023-03-17T04:47:50.988Z,2.17
2023-03-17T04:50:18.978Z,2.40
2023-03-17T04:52:46.814Z,2.17
2023-03-17T04:55:16.677Z,2.00
2023-03-17T04:57:44.988Z,2.07
2023-03-17T05:00:15.475Z,2.30
2023-03-17T05:02:43.422Z,2.27
2023-03-17T05:05:12.254Z,1.87
2023-03-17T05:07:40.111Z,2.40
2023-03-17T05:10:09.404Z,2.10
2023-03-17T05:12:38.710Z,2.43
2023-03-17T05:15:07.564Z,2.30
2023-03-17T05:17:35.524Z,2.30
2023-03-17T05:20:04.370Z,2.23
2023-03-17T05:22:32.138Z,2.20
2023-03-17T05:24:59.890Z,2.13
2023-03-17T05:27:27.697Z,2.27
2023-03-17T05:29:57.686Z,2.10
2023-03-17T05:32:25.818Z,2.20
2023-03-17T05:34:54.014Z,2.10
2023-03-17T05:37:22.724Z,1.83
2023-03-17T05:39:50.991Z,2.30
2023-03-17T05:42:18.776Z,2.30
2023-03-17T05:44:46.508Z,2.03
2023-03-17T05:47:16.342Z,2.70
2023-03-17T05:49:44.120Z,2.10
2023-03-17T05:52:12.079Z,2.30
2023-03-17T05:54:40.391Z,1.90
2023-03-17T05:57:08.495Z,2.07
2023-03-17T05:59:37.003Z,2.40
2023-03-17T06:02:04.798Z,2.70
2023-03-17T06:04:34.180Z,2.40
2023-03-17T06:07:02.126Z,2.30
2023-03-17T06:09:30.387Z,2.20
2023-03-17T06:11:58.790Z,2.20
2023-03-17T06:14:27.328Z,2.20
2023-03-17T06:16:55.535Z,2.33
2023-03-17T06:19:23.538Z,2.40
2023-03-17T06:21:52.875Z,2.03
2023-03-17T06:24:21.032Z,2.33
2023-03-17T06:26:48.785Z,1.93
2023-03-17T06:29:16.676Z,2.27
2023-03-17T06:31:50.438Z,2.27
2023-03-17T06:34:18.895Z,2.27
2023-03-17T06:36:46.891Z,2.40
2023-03-17T06:39:18.210Z,2.17
2023-03-17T06:41:46.128Z,2.10
2023-03-17T06:44:14.168Z,2.10
2023-03-17T06:46:42.553Z,2.23
2023-03-17T06:49:13.413Z,1.87
2023-03-17T06:51:41.606Z,2.47
2023-03-17T06:54:09.665Z,2.00
2023-03-17T06:56:38.846Z,2.23
2023-03-17T06:59:06.677Z,2.27
2023-03-17T07:01:34.869Z,1.90
2023-03-17T07:04:02.717Z,1.80
2023-03-17T07:06:31.029Z,2.50
2023-03-17T07:09:00.973Z,1.90
2023-03-17T07:11:30.766Z,2.00
2023-03-17T07:14:00.479Z,2.67
2023-03-17T07:16:29.176Z,2.30
2023-03-17T07:18:57.232Z,2.10
2023-03-17T07:21:24.999Z,2.20
2023-03-17T07:23:52.791Z,2.30
2023-03-17T07:26:20.701Z,2.10
2023-03-17T07:28:48.536Z,2.10
2023-03-17T07:31:17.882Z,2.30
2023-03-17T07:33:45.779Z,2.00
2023-03-17T07:36:15.825Z,2.20
2023-03-17T07:38:43.846Z,2.20
2023-03-17T07:41:11.890Z,2.07
2023-03-17T07:43:39.847Z,2.00
2023-03-17T07:46:08.516Z,2.37
2023-03-17T07:48:42.009Z,2.13
2023-03-17T07:51:14.341Z,2.27
2023-03-17T07:53:42.933Z,2.30
2023-03-17T07:56:11.088Z,2.13
2023-03-17T07:58:38.875Z,2.40
2023-03-17T08:01:08.484Z,1.90
2023-03-17T08:03:40.997Z,2.00
2023-03-17T08:06:09.327Z,2.23
2023-03-17T08:08:37.650Z,2.20
2023-03-17T08:11:07.713Z,2.13
2023-03-17T08:13:35.786Z,2.20
2023-03-17T08:16:03.707Z,1.80
2023-03-17T08:18:32.043Z,1.80
2023-03-17T08:21:02.107Z,2.00
2023-03-17T08:23:30.125Z,1.80
2023-03-17T08:25:58.829Z,2.13
2023-03-17T08:28:27.126Z,1.70
2023-03-17T08:30:55.868Z,2.10
2023-03-17T08:33:24.180Z,1.80
2023-03-17T08:35:52.148Z,2.17
2023-03-17T08:38:21.554Z,1.93
2023-03-17T08:40:50.635Z,2.17
2023-03-17T08:43:18.731Z,1.87
2023-03-17T08:45:46.771Z,2.10
2023-03-17T08:48:15.346Z,1.90
2023-03-17T08:50:43.501Z,2.10
2023-03-17T08:53:11.911Z,1.93
2023-03-17T08:55:41.219Z,1.87
2023-03-17T08:58:09.713Z,2.00
2023-03-17T09:00:37.670Z,2.10
2023-03-17T09:03:05.869Z,2.10
2023-03-17T09:05:36.259Z,1.73
2023-03-17T09:08:06.505Z,2.00
2023-03-17T09:10:34.478Z,2.03
2023-03-17T09:13:04.723Z,2.27
2023-03-17T09:15:34.190Z,2.37
2023-03-17T09:18:03.354Z,2.30
2023-03-17T09:20:31.535Z,2.17
2023-03-17T09:23:00.373Z,2.10
2023-03-17T09:25:28.473Z,2.00
2023-03-17T09:27:56.567Z,2.10
2023-03-17T09:30:26.996Z,2.23
2023-03-17T09:32:57.351Z,2.20
2023-03-17T09:35:26.198Z,2.17
2023-03-17T09:37:54.233Z,2.20
2023-03-17T09:40:28.791Z,2.27
2023-03-17T09:43:07.231Z,2.40
2023-03-17T09:45:41.100Z,2.27
2023-03-17T09:48:37.421Z,2.00
2023-03-17T09:51:08.947Z,2.33
2023-03-17T09:53:41.765Z,2.07
2023-03-17T09:56:14.330Z,2.40
2023-03-17T09:58:46.784Z,2.53
2023-03-17T10:01:16.300Z,2.00
2023-03-17T10:03:45.090Z,2.83
2023-03-17T10:06:26.022Z,1.83
2023-03-17T10:08:58.755Z,2.50
2023-03-17T10:11:36.028Z,2.43
2023-03-17T10:14:06.254Z,2.00
2023-03-17T10:16:43.717Z,2.70
2023-03-17T10:19:22.437Z,2.20
2023-03-17T10:21:54.888Z,1.90
2023-03-17T10:24:24.595Z,2.00
2023-03-17T10:26:54.290Z,1.90
2023-03-17T10:29:24.512Z,2.13
2023-03-17T10:31:58.303Z,2.00
2023-03-17T10:34:29.686Z,2.17
2023-03-17T10:37:07.016Z,2.30
2023-03-17T10:39:43.590Z,2.40
2023-03-17T10:42:15.352Z,2.20
2023-03-17T10:44:49.682Z,2.07
2023-03-17T10:47:30.193Z,2.10
2023-03-17T10:49:59.885Z,2.50
2023-03-17T10:52:30.332Z,1.90
2023-03-17T10:55:05.687Z,2.30
2023-03-17T10:57:37.557Z,2.10
2023-03-17T11:00:15.176Z,2.30
2023-03-17T11:02:50.208Z,2.30
2023-03-17T11:05:24.138Z,2.03
2023-03-17T11:07:58.988Z,2.50
2023-03-17T11:10:30.182Z,2.10
2023-03-17T11:13:02.020Z,2.23
2023-03-17T11:15:33.820Z,2.17
2023-03-17T11:18:07.683Z,2.10
2023-03-17T11:20:45.840Z,2.30
2023-03-17T11:23:32.864Z,2.20
2023-03-17T11:26:14.823Z,2.00
2023-03-17T11:28:49.341Z,2.10
2023-03-17T11:31:25.826Z,2.13
2023-03-17T11:34:03.322Z,2.40
2023-03-17T11:36:44.770Z,2.33
2023-03-17T11:39:17.188Z,2.30
2023-03-17T11:42:03.286Z,2.53
2023-03-17T11:45:04.728Z,2.23
2023-03-17T11:47:42.965Z,2.00
2023-03-17T11:50:24.337Z,2.10
2023-03-17T11:53:04.233Z,2.37
2023-03-17T11:55:40.664Z,2.70
2023-03-17T11:58:15.232Z,2.10
2023-03-17T12:00:50.760Z,2.03
2023-03-17T12:03:24.962Z,2.20
2023-03-17T12:05:58.249Z,2.03
2023-03-17T12:08:34.315Z,1.80
2023-03-17T12:11:08.397Z,2.13
2023-03-17T12:13:41.750Z,1.97
2023-03-17T12:16:14.481Z,1.93
2023-03-17T12:18:49.177Z,2.60
2023-03-17T12:21:27.132Z,2.47
2023-03-17T12:24:01.914Z,2.20
2023-03-17T12:26:36.270Z,2.53
2023-03-17T12:29:12.311Z,2.47
2023-03-17T12:31:45.356Z,2.33
2023-03-17T12:34:21.488Z,2.40
2023-03-17T12:36:51.376Z,2.00
2023-03-17T12:39:24.921Z,2.20
2023-03-17T12:42:08.767Z,2.20
2023-03-17T12:44:59.518Z,2.47
2023-03-17T12:47:46.131Z,2.20
2023-03-17T12:50:29.569Z,2.40
2023-03-17T12:53:24.563Z,2.27
2023-03-17T12:55:55.692Z,2.07
2023-03-17T12:58:30.866Z,2.13
2023-03-17T13:01:08.803Z,2.53
2023-03-17T13:03:38.628Z,2.50
2023-03-17T13:06:16.593Z,2.37
2023-03-17T13:08:45.909Z,2.43
2023-03-17T13:11:19.876Z,2.23
2023-03-17T13:13:59.424Z,2.50
2023-03-17T13:16:32.098Z,2.40
2023-03-17T13:19:18.600Z,2.00
2023-03-17T13:21:50.503Z,2.00
2023-03-17T13:24:42.682Z,2.07
2023-03-17T13:27:14.940Z,2.40
2023-03-17T13:29:47.899Z,2.10
2023-03-17T13:32:34.745Z,2.13
2023-03-17T13:35:38.680Z,2.20
2023-03-17T13:38:32.012Z,2.30
2023-03-17T13:41:15.405Z,2.20
2023-03-17T13:44:02.048Z,2.20
2023-03-17T13:46:41.238Z,2.10
2023-03-17T13:49:22.483Z,2.10
2023-03-17T13:51:59.976Z,2.10
2023-03-17T13:54:34.885Z,1.97
2023-03-17T13:57:30.702Z,2.00
2023-03-17T14:00:15.100Z,2.00
2023-03-17T14:02:44.535Z,2.27
2023-03-17T14:05:23.188Z,2.10
2023-03-17T14:07:56.238Z,1.93
2023-03-17T14:10:26.176Z,2.10
2023-03-17T14:13:02.070Z,2.30
2023-03-17T14:15:36.141Z,2.27
2023-03-17T14:18:10.949Z,2.23
2023-03-17T14:20:38.838Z,2.20
2023-03-17T14:23:07.702Z,2.10
2023-03-17T14:25:38.246Z,1.97
2023-03-17T14:28:11.394Z,2.10
2023-03-17T14:30:39.864Z,2.27
2023-03-17T14:33:16.049Z,1.80
2023-03-17T14:35:44.318Z,2.30
2023-03-17T14:38:19.691Z,2.13
2023-03-17T14:40:48.079Z,1.70
2023-03-17T14:43:17.407Z,1.90
2023-03-17T14:45:51.471Z,2.00
2023-03-17T14:48:26.690Z,1.93
2023-03-17T14:50:56.288Z,1.73
2023-03-17T14:53:26.409Z,2.10
2023-03-17T14:55:54.687Z,1.90
2023-03-17T14:58:26.572Z,1.70
2023-03-17T15:00:59.041Z,1.90
2023-03-17T15:03:31.574Z,1.90
2023-03-17T15:06:20.008Z,1.93
2023-03-17T15:08:47.804Z,1.87
2023-03-17T15:11:27.840Z,1.80
2023-03-17T15:14:07.293Z,1.83
2023-03-17T15:16:36.730Z,1.50
2023-03-17T15:19:08.400Z,1.90
2023-03-17T15:21:40.937Z,1.93
2023-03-17T15:24:24.654Z,2.00
2023-03-17T15:26:59.603Z,2.00
2023-03-17T15:29:29.765Z,2.00
2023-03-17T15:32:04.714Z,1.90
2023-03-17T15:34:32.668Z,1.80
2023-03-17T15:37:00.492Z,1.80
2023-03-17T15:39:28.558Z,2.27
2023-03-17T15:41:56.525Z,2.00
2023-03-17T15:44:24.816Z,2.10
2023-03-17T15:46:54.701Z,1.93
2023-03-17T15:49:25.820Z,2.47
2023-03-17T15:51:54.618Z,2.30
2023-03-17T15:54:22.670Z,1.97
2023-03-17T15:56:50.910Z,2.23
2023-03-17T15:59:19.477Z,2.47
2023-03-17T16:01:47.926Z,3.10
2023-03-17T16:04:18.042Z,2.03
2023-03-17T16:06:47.967Z,1.90
2023-03-17T16:09:18.039Z,2.33
2023-03-17T16:11:45.972Z,2.10
2023-03-17T16:14:13.927Z,1.87
2023-03-17T16:16:45.726Z,1.73
2023-03-17T16:19:21.663Z,1.70
2023-03-17T16:21:50.184Z,1.80
2023-03-17T16:24:19.858Z,1.90
2023-03-17T16:26:47.991Z,2.90
2023-03-17T16:29:17.272Z,1.97
2023-03-17T16:31:48.888Z,1.93
2023-03-17T16:34:17.768Z,2.30
2023-03-17T16:36:47.201Z,2.00
2023-03-17T16:39:18.581Z,1.77
2023-03-17T16:41:47.881Z,2.20
2023-03-17T16:44:17.626Z,1.93
2023-03-17T16:46:46.171Z,1.80
2023-03-17T16:49:16.444Z,1.97
2023-03-17T16:51:44.833Z,1.90
2023-03-17T16:54:14.274Z,1.97
2023-03-17T16:56:43.081Z,1.87
2023-03-17T16:59:21.500Z,1.80
2023-03-17T17:01:49.344Z,1.70
2023-03-17T17:04:17.164Z,1.87
2023-03-17T17:06:45.343Z,1.90
2023-03-17T17:09:14.896Z,1.70
2023-03-17T17:11:42.916Z,1.70
2023-03-17T17:14:10.833Z,1.87
2023-03-17T17:16:40.705Z,1.70
2023-03-17T17:19:15.734Z,2.00
2023-03-17T17:21:43.970Z,1.63
2023-03-17T17:24:12.722Z,2.03
2023-03-17T17:26:42.048Z,2.13
2023-03-17T17:29:10.055Z,1.60
2023-03-17T17:31:37.840Z,1.60
2023-03-17T17:34:05.711Z,3.63
2023-03-17T17:36:33.941Z,1.90
2023-03-17T17:39:01.899Z,2.23
2023-03-17T17:41:32.183Z,2.07
2023-03-17T17:44:02.063Z,2.07
2023-03-17T17:46:30.039Z,2.03
2023-03-17T17:48:58.076Z,1.97
2023-03-17T17:51:26.047Z,1.93
2023-03-17T17:53:53.886Z,1.80
2023-03-17T17:56:21.889Z,2.00
2023-03-17T17:58:49.876Z,1.77
2023-03-17T18:01:19.777Z,2.13
2023-03-17T18:03:47.631Z,2.43
2023-03-17T18:06:17.345Z,2.10
2023-03-17T18:08:45.692Z,1.90
2023-03-17T18:11:13.786Z,2.00
2023-03-17T18:13:41.726Z,2.23
2023-03-17T18:16:10.853Z,2.07
2023-03-17T18:18:42.457Z,2.33
2023-03-17T18:21:11.031Z,2.20
2023-03-17T18:23:39.269Z,2.00
2023-03-17T18:26:07.731Z,2.27
2023-03-17T18:28:36.016Z,2.27
2023-03-17T18:31:09.564Z,2.10
2023-03-17T18:33:38.096Z,2.20
2023-03-17T18:36:08.929Z,2.17
2023-03-17T18:38:37.403Z,2.10
2023-03-17T18:41:07.996Z,2.50
2023-03-17T18:43:36.035Z,2.20
2023-03-17T18:46:04.201Z,2.63
2023-03-17T18:48:32.222Z,3.00
2023-03-17T18:51:00.190Z,2.07
2023-03-17T18:53:30.784Z,2.03
2023-03-17T18:55:59.277Z,2.33
2023-03-17T18:58:27.717Z,2.33
2023-03-17T19:00:59.363Z,2.00
2023-03-17T19:03:28.176Z,2.00
2023-03-17T19:05:56.946Z,1.97
2023-03-17T19:08:25.291Z,2.30
2023-03-17T19:10:54.684Z,2.00
2023-03-17T19:13:22.816Z,2.10
2023-03-17T19:15:50.869Z,2.03
2023-03-17T19:18:18.905Z,2.30
2023-03-17T19:20:46.829Z,2.60
2023-03-17T19:23:15.610Z,2.03
2023-03-17T19:25:43.913Z,2.20
2023-03-17T19:28:13.461Z,2.40
2023-03-17T19:30:42.002Z,2.47
2023-03-17T19:33:09.965Z,2.37
2023-03-17T19:35:38.087Z,2.30
2023-03-17T19:38:08.162Z,2.40
2023-03-17T19:40:36.943Z,2.47
2023-03-17T19:43:05.541Z,2.40
2023-03-17T19:45:35.359Z,2.60
2023-03-17T19:48:03.298Z,2.13
2023-03-17T19:50:33.055Z,2.20
2023-03-17T19:53:02.185Z,2.07
2023-03-17T19:55:30.216Z,2.50
2023-03-17T19:57:58.211Z,2.27
2023-03-17T20:00:26.424Z,2.30
2023-03-17T20:02:55.847Z,2.20
2023-03-17T20:05:23.752Z,3.00
2023-03-17T20:07:51.535Z,2.43
2023-03-17T20:10:19.494Z,2.60
2023-03-17T20:12:47.342Z,2.60
2023-03-17T20:15:16.484Z,2.10
2023-03-17T20:17:44.620Z,2.30
2023-03-17T20:20:15.352Z,2.60
2023-03-17T20:22:43.708Z,2.53
2023-03-17T20:25:12.374Z,2.83
2023-03-17T20:27:41.603Z,2.30
2023-03-17T20:30:12.218Z,2.77
2023-03-17T20:32:40.366Z,2.93
2023-03-17T20:35:09.038Z,2.50
2023-03-17T20:37:38.764Z,2.60
2023-03-17T20:40:09.760Z,2.80
2023-03-17T20:42:38.226Z,2.57
2023-03-17T20:45:07.497Z,2.43
2023-03-17T20:47:36.140Z,2.80
2023-03-17T20:50:04.765Z,2.87
2023-03-17T20:52:33.253Z,2.70
2023-03-17T20:55:02.638Z,2.70
2023-03-17T20:57:30.499Z,2.80
2023-03-17T20:59:58.409Z,2.53
2023-03-17T21:02:26.952Z,2.40
2023-03-17T21:04:54.740Z,2.63
2023-03-17T21:07:23.211Z,2.70
2023-03-17T21:09:51.851Z,2.53
2023-03-17T21:12:21.642Z,3.03
2023-03-17T21:14:50.655Z,2.70
2023-03-17T21:17:19.062Z,2.80
2023-03-17T21:19:47.456Z,2.47
2023-03-17T21:22:16.017Z,2.93
2023-03-17T21:24:43.913Z,2.73
2023-03-17T21:27:12.728Z,2.70
2023-03-17T21:29:41.996Z,3.30
2023-03-17T21:32:10.100Z,3.07
2023-03-17T21:34:38.389Z,2.53
2023-03-17T21:37:06.798Z,3.03
2023-03-17T21:39:36.186Z,3.00
2023-03-17T21:42:05.295Z,3.33
2023-03-17T21:44:33.341Z,3.37
2023-03-17T21:47:03.485Z,2.60
2023-03-17T21:49:31.375Z,2.73
2023-03-17T21:51:59.442Z,2.97
2023-03-17T21:54:27.252Z,3.07
2023-03-17T21:56:55.166Z,2.80
2023-03-17T21:59:23.626Z,3.00
2023-03-17T22:01:52.954Z,2.63
2023-03-17T22:04:22.224Z,3.03
2023-03-17T22:06:50.303Z,2.67
2023-03-17T22:09:19.286Z,3.10
2023-03-17T22:11:47.379Z,2.80
2023-03-17T22:14:19.843Z,2.90
2023-03-17T22:16:48.454Z,3.23
2023-03-17T22:19:18.210Z,3.07
2023-03-17T22:21:48.741Z,2.67
2023-03-17T22:24:17.415Z,3.33
2023-03-17T22:26:45.286Z,3.03
2023-03-17T22:29:13.581Z,3.10
2023-03-17T22:31:42.171Z,3.33
2023-03-17T22:34:10.935Z,3.43
2023-03-17T22:36:38.906Z,3.13
2023-03-17T22:39:10.554Z,3.07
2023-03-17T22:41:39.230Z,3.57
2023-03-17T22:44:08.161Z,3.40
2023-03-17T22:46:36.024Z,3.20
2023-03-17T22:49:03.930Z,3.20
2023-03-17T22:51:31.699Z,3.70
2023-03-17T22:53:59.928Z,3.77
2023-03-17T22:56:30.049Z,3.87
2023-03-17T22:58:58.211Z,3.70
2023-03-17T23:01:26.385Z,3.87
2023-03-17T23:03:55.228Z,3.90
2023-03-17T23:06:23.458Z,3.30
2023-03-17T23:08:51.437Z,3.37
2023-03-17T23:11:22.180Z,3.70
2023-03-17T23:13:52.954Z,3.40
2023-03-17T23:16:22.067Z,3.83
2023-03-17T23:18:49.969Z,3.53
2023-03-17T23:21:22.715Z,3.87
2023-03-17T23:23:51.231Z,4.50
2023-03-17T23:26:19.234Z,4.50
2023-03-17T23:28:47.664Z,3.93
2023-03-17T23:31:19.262Z,3.63
2023-03-17T23:33:47.734Z,3.60
2023-03-17T23:36:17.011Z,3.30
2023-03-17T23:38:45.886Z,3.57
2023-03-17T23:41:14.597Z,3.50
2023-03-17T23:43:44.011Z,3.43
2023-03-17T23:46:12.986Z,3.60
2023-03-17T23:48:43.013Z,3.20
2023-03-17T23:51:12.291Z,3.33
2023-03-17T23:53:40.593Z,3.33
2023-03-17T23:56:09.418Z,3.37
2023-03-17T23:58:37.350Z,3.47
